FZMP weather

Kimano Ii Airport
Kimano Ii, Maniema Province, Congo (Kinshasa)

Public forecast

Using degrees Celsius for public forecast. Weather courtesy of forecast.io.

Closest aviation weather report (METAR) to Kimano Ii Airport

Report is more than 2 hours old.

Closest report is Kigoma Airport, 84.6 nm (156.7 km) ESE. Retrieved 2020/06/04 22:00 UTC (4 hours ago):

HTKA 042200Z 00000KT CAVOK 21/18 Q1017

Closest aviation forecast (TAF) to Kimano Ii Airport

Forecast is more than 12 hours old.

Closest forecast is Kigoma Airport, 84.6 nm (156.7 km) ESE. Retrieved 2020/06/04 12:27 UTC (14 hours ago):

TAF HTKA 041100Z 0412/0512 00000KT 9999 FEW020 BECMG 0412/0415 12015KT TEMPO 0416/0504 NSC